Time;durP1;ratioP1;P1;durP2;ratioP2;P2;SDS_P1;SDS_P2;PMS_P1;PMS_P2;Temp;Humidity;BMP_temperature;BMP_pressure;BME280_temperature;BME280_humidity;BME280_pressure;Samples;Min_cycle;Max_cycle;Signal;HPM_P1;HPM_P2
2022/06/26 00:01:53;;;;;;;0.05;0.05;;;17.70;84.00;;;;;;5049459;28;20053;-68
2022/06/26 00:04:19;;;;;;;0.00;0.00;;;17.70;84.20;;;;;;5049975;28;20040;-68
2022/06/26 00:06:44;;;;;;;0.00;0.00;;;17.80;84.70;;;;;;5049551;28;20041;-68
2022/06/26 00:09:10;;;;;;;0.00;0.00;;;17.80;84.30;;;;;;5049580;28;20383;-68
2022/06/26 00:11:36;;;;;;;0.05;0.05;;;17.70;85.30;;;;;;5049188;28;20063;-68
2022/06/26 00:14:01;;;;;;;0.00;0.00;;;17.60;85.70;;;;;;5049051;28;20072;-68
2022/06/26 00:16:27;;;;;;;0.08;0.08;;;17.50;86.80;;;;;;5048705;28;20051;-68
2022/06/26 00:18:52;;;;;;;0.00;0.00;;;17.30;87.70;;;;;;5048998;28;20501;-68
2022/06/26 00:21:18;;;;;;;0.00;0.00;;;17.30;87.90;;;;;;5049052;28;20064;-68
2022/06/26 00:23:43;;;;;;;0.08;0.08;;;17.20;88.30;;;;;;5049020;28;20048;-68
2022/06/26 00:26:09;;;;;;;0.00;0.00;;;17.20;88.20;;;;;;5048990;28;20493;-69
2022/06/26 00:28:35;;;;;;;0.00;0.00;;;17.20;88.10;;;;;;5049330;28;20379;-68
2022/06/26 00:31:01;;;;;;;0.00;0.00;;;17.20;88.10;;;;;;5048895;28;20040;-68
2022/06/26 00:33:27;;;;;;;0.00;0.00;;;17.20;88.00;;;;;;5049164;28;20128;-68
2022/06/26 00:35:52;;;;;;;0.00;0.00;;;17.30;87.80;;;;;;5048389;28;20490;-68
2022/06/26 00:38:18;;;;;;;0.00;0.00;;;17.30;87.60;;;;;;5049206;28;20090;-68
2022/06/26 00:40:43;;;;;;;0.00;0.00;;;17.40;87.50;;;;;;5049036;28;20036;-68
2022/06/26 00:43:09;;;;;;;0.00;0.00;;;17.40;87.30;;;;;;5048815;28;20052;-68
2022/06/26 00:45:35;;;;;;;0.00;0.00;;;17.50;87.00;;;;;;5049111;28;20045;-68
2022/06/26 00:48:01;;;;;;;0.00;0.00;;;17.50;86.90;;;;;;5048442;28;21001;-68
2022/06/26 00:50:27;;;;;;;0.00;0.00;;;17.50;87.00;;;;;;5048858;28;20033;-68
2022/06/26 00:52:56;;;;;;;0.00;0.00;;;17.50;87.00;;;;;;5048530;28;20132;-68
2022/06/26 00:55:22;;;;;;;0.00;0.00;;;17.50;87.00;;;;;;5048266;28;20049;-68
2022/06/26 00:57:49;;;;;;;0.00;0.00;;;17.50;87.00;;;;;;5048582;28;20040;-68
2022/06/26 01:00:15;;;;;;;0.00;0.00;;;17.50;87.00;;;;;;5048613;28;20049;-68
2022/06/26 01:02:41;;;;;;;0.00;0.00;;;17.60;86.90;;;;;;5048724;28;20044;-68
2022/06/26 01:05:08;;;;;;;0.00;0.00;;;17.60;86.90;;;;;;5047686;28;20037;-68
2022/06/26 01:07:34;;;;;;;0.00;0.00;;;17.70;86.80;;;;;;5048652;28;20171;-68
2022/06/26 01:10:00;;;;;;;0.00;0.00;;;17.70;86.70;;;;;;5048543;28;20565;-68
2022/06/26 01:12:26;;;;;;;0.00;0.00;;;17.80;86.80;;;;;;5048758;28;20053;-68
2022/06/26 01:14:52;;;;;;;0.00;0.00;;;17.90;86.60;;;;;;5047804;28;20166;-68
2022/06/26 01:17:18;;;;;;;0.00;0.00;;;17.90;86.60;;;;;;5048685;28;20060;-68
2022/06/26 01:19:45;;;;;;;0.00;0.00;;;17.90;86.60;;;;;;5049076;28;20049;-68
2022/06/26 01:22:10;;;;;;;0.00;0.00;;;17.90;86.60;;;;;;5049066;28;20051;-68
2022/06/26 01:24:36;;;;;;;0.00;0.00;;;18.00;86.70;;;;;;5048645;28;20410;-67
2022/06/26 01:27:02;;;;;;;0.00;0.00;;;18.00;86.60;;;;;;5048226;28;20032;-68
2022/06/26 01:29:28;;;;;;;0.00;0.00;;;18.10;86.60;;;;;;5048221;28;20037;-68
2022/06/26 01:31:54;;;;;;;0.00;0.00;;;18.10;86.60;;;;;;5052067;28;20059;-68
2022/06/26 01:34:19;;;;;;;0.00;0.00;;;18.10;86.60;;;;;;5052685;28;20045;-68
2022/06/26 01:36:45;;;;;;;0.00;0.00;;;18.10;86.40;;;;;;5052269;28;20056;-67
2022/06/26 01:39:11;;;;;;;0.00;0.00;;;18.10;86.40;;;;;;5052382;28;20450;-68
2022/06/26 01:41:36;;;;;;;0.00;0.00;;;18.10;86.30;;;;;;5052671;28;20037;-68
2022/06/26 01:44:02;;;;;;;0.00;0.00;;;18.20;86.20;;;;;;5052208;28;20052;-68
2022/06/26 01:46:28;;;;;;;0.00;0.00;;;18.20;86.10;;;;;;5052605;28;20048;-68
2022/06/26 01:48:53;;;;;;;0.00;0.00;;;18.20;86.10;;;;;;5052109;28;20037;-68
2022/06/26 01:51:19;;;;;;;0.00;0.00;;;18.20;86.00;;;;;;5050693;28;20060;-68
2022/06/26 01:53:45;;;;;;;0.00;0.00;;;18.10;85.90;;;;;;5051434;28;20048;-68
2022/06/26 01:56:11;;;;;;;0.00;0.00;;;18.20;85.80;;;;;;5052443;28;20037;-68
2022/06/26 01:58:37;;;;;;;0.00;0.00;;;18.10;85.70;;;;;;5052028;28;20045;-67
2022/06/26 02:01:08;;;;;;;0.00;0.00;;;18.10;85.70;;;;;;5051600;28;20144;-68
2022/06/26 02:03:34;;;;;;;0.00;0.00;;;18.10;85.70;;;;;;5052194;28;20049;-67
2022/06/26 02:05:59;;;;;;;0.00;0.00;;;18.20;85.80;;;;;;5052034;28;20036;-68
2022/06/26 02:08:25;;;;;;;0.00;0.00;;;18.20;85.90;;;;;;5051885;28;20041;-68
2022/06/26 02:13:40;;;;;;;0.00;0.00;;;18.20;85.90;;;;;;5040505;28;20159;-68
2022/06/26 02:16:15;;;;;;;0.00;0.00;;;18.20;86.00;;;;;;5051917;28;20056;-67
2022/06/26 02:18:42;;;;;;;0.00;0.00;;;18.30;86.10;;;;;;5051216;28;20056;-67
2022/06/26 02:21:09;;;;;;;0.00;0.00;;;18.30;86.10;;;;;;5051179;28;20079;-67
2022/06/26 02:23:37;;;;;;;0.00;0.00;;;18.30;86.10;;;;;;5051503;28;20045;-68
2022/06/26 02:26:05;;;;;;;0.00;0.00;;;18.30;86.30;;;;;;5051421;28;20045;-68
2022/06/26 02:28:31;;;;;;;0.00;0.00;;;18.30;86.40;;;;;;5051326;28;20041;-67
2022/06/26 02:30:57;;;;;;;0.00;0.00;;;18.20;86.00;;;;;;5051506;28;20391;-68
2022/06/26 02:33:23;;;;;;;0.00;0.00;;;18.20;86.00;;;;;;5051101;28;20047;-68
2022/06/26 02:35:49;;;;;;;0.00;0.00;;;18.10;85.90;;;;;;5051278;28;20408;-68
2022/06/26 02:38:15;;;;;;;0.00;0.00;;;18.10;85.90;;;;;;5051320;28;20033;-68
2022/06/26 02:40:41;;;;;;;0.00;0.00;;;18.10;86.00;;;;;;5050834;28;20053;-68
2022/06/26 02:43:07;;;;;;;0.00;0.00;;;18.10;86.20;;;;;;5051096;28;20399;-68
2022/06/26 02:45:33;;;;;;;0.00;0.00;;;18.10;86.50;;;;;;5051184;28;20045;-68
2022/06/26 02:47:58;;;;;;;0.00;0.00;;;18.10;86.90;;;;;;5050856;28;20060;-68
2022/06/26 02:50:24;;;;;;;0.00;0.00;;;18.00;87.10;;;;;;5050931;28;20123;-68
2022/06/26 02:52:50;;;;;;;0.00;0.00;;;18.00;87.40;;;;;;5050580;28;20037;-68
2022/06/26 02:55:15;;;;;;;0.00;0.00;;;17.90;87.80;;;;;;5050667;28;20135;-68
2022/06/26 02:57:41;;;;;;;0.20;0.20;;;17.90;87.80;;;;;;5050646;28;20409;-67
2022/06/26 03:00:09;;;;;;;0.00;0.00;;;17.70;87.80;;;;;;5050827;28;20048;-68
2022/06/26 03:02:34;;;;;;;0.00;0.00;;;17.70;88.30;;;;;;5050845;28;20072;-68
2022/06/26 03:05:00;;;;;;;0.00;0.00;;;17.60;88.10;;;;;;5050671;28;20158;-68
2022/06/26 03:07:26;;;;;;;0.00;0.00;;;17.60;88.30;;;;;;5050690;28;20033;-68
2022/06/26 03:09:51;;;;;;;0.00;0.00;;;17.60;88.70;;;;;;5050306;28;20138;-68
2022/06/26 03:12:17;;;;;;;0.00;0.00;;;17.60;88.70;;;;;;5050481;28;20068;-68
2022/06/26 03:14:42;;;;;;;0.75;0.75;;;17.50;89.00;;;;;;5050087;28;20037;-67
2022/06/26 03:17:08;;;;;;;0.00;0.00;;;17.60;89.40;;;;;;5050426;28;20124;-68
2022/06/26 03:19:34;;;;;;;0.00;0.00;;;17.50;89.30;;;;;;5050686;28;20474;-68
2022/06/26 03:21:59;;;;;;;0.00;0.00;;;17.50;89.40;;;;;;5050234;28;20051;-68
2022/06/26 03:24:25;;;;;;;0.00;0.00;;;17.50;89.40;;;;;;5050232;28;20040;-68
2022/06/26 03:26:51;;;;;;;0.00;0.00;;;17.50;89.40;;;;;;5050591;28;20049;-68
2022/06/26 03:29:16;;;;;;;0.00;0.00;;;17.60;89.30;;;;;;5049876;28;20029;-69
2022/06/26 03:31:42;;;;;;;0.00;0.00;;;17.60;89.20;;;;;;5050440;28;20098;-68
2022/06/26 03:34:08;;;;;;;0.00;0.00;;;17.60;89.10;;;;;;5049824;28;20069;-68
2022/06/26 03:36:34;;;;;;;0.00;0.00;;;17.60;89.00;;;;;;5050244;28;20047;-68
2022/06/26 03:39:00;;;;;;;0.00;0.00;;;17.70;89.10;;;;;;5049989;28;20049;-68
2022/06/26 03:41:27;;;;;;;0.00;0.00;;;17.60;89.30;;;;;;5050474;28;20132;-69
2022/06/26 03:43:53;;;;;;;0.00;0.00;;;17.70;89.30;;;;;;5050000;28;20156;-69
2022/06/26 03:46:19;;;;;;;0.00;0.00;;;17.70;89.50;;;;;;5049983;28;20809;-69
2022/06/26 03:48:45;;;;;;;0.00;0.00;;;17.70;89.50;;;;;;5049397;28;20059;-68
2022/06/26 03:51:11;;;;;;;0.00;0.00;;;17.70;89.40;;;;;;5049879;28;20040;-69
2022/06/26 03:53:36;;;;;;;0.00;0.00;;;17.80;89.30;;;;;;5064733;28;20036;-69
2022/06/26 03:56:03;;;;;;;0.00;0.00;;;17.80;89.40;;;;;;5049306;28;20051;-69
2022/06/26 03:58:29;;;;;;;0.00;0.00;;;17.80;89.20;;;;;;5049960;28;20127;-68
2022/06/26 04:00:54;;;;;;;0.45;0.45;;;17.70;89.30;;;;;;5049351;28;20049;-69
2022/06/26 04:03:20;;;;;;;0.00;0.00;;;17.70;89.50;;;;;;5049459;28;20117;-69
2022/06/26 04:05:46;;;;;;;0.00;0.00;;;17.70;89.60;;;;;;5065176;28;20044;-69
2022/06/26 04:08:12;;;;;;;0.00;0.00;;;17.60;89.60;;;;;;5049114;28;20045;-66
2022/06/26 04:10:38;;;;;;;0.00;0.00;;;17.60;89.60;;;;;;5049187;28;20100;-68
2022/06/26 04:13:06;;;;;;;0.52;0.52;;;17.60;89.60;;;;;;5049449;28;20049;-67
2022/06/26 04:15:34;;;;;;;0.00;0.00;;;17.60;89.70;;;;;;5048900;28;20456;-67
2022/06/26 04:18:00;;;;;;;0.00;0.00;;;17.60;89.70;;;;;;5048988;28;20441;-68
2022/06/26 04:20:26;;;;;;;0.08;0.08;;;17.60;89.70;;;;;;5048141;28;20036;-68
2022/06/26 04:22:59;;;;;;;0.00;0.00;;;17.60;89.70;;;;;;5047606;28;20045;-68
2022/06/26 04:25:27;;;;;;;0.00;0.00;;;17.60;89.60;;;;;;5049105;28;20037;-68
2022/06/26 04:27:52;;;;;;;0.73;0.70;;;17.60;89.50;;;;;;5048759;28;20037;-68
2022/06/26 04:30:19;;;;;;;0.13;0.13;;;17.60;89.50;;;;;;5048807;28;20120;-68
2022/06/26 04:32:44;;;;;;;0.00;0.00;;;17.60;89.40;;;;;;5047653;28;20064;-68
2022/06/26 04:35:10;;;;;;;0.00;0.00;;;17.60;89.60;;;;;;5048794;28;20845;-68
2022/06/26 04:37:37;;;;;;;0.22;0.20;;;17.70;89.60;;;;;;5049325;28;20090;-68
2022/06/26 04:40:05;;;;;;;0.10;0.10;;;17.70;89.50;;;;;;5048467;28;20106;-68
2022/06/26 04:42:31;;;;;;;0.00;0.00;;;17.60;89.70;;;;;;5048664;28;20045;-68
2022/06/26 04:44:56;;;;;;;0.15;0.15;;;17.70;89.70;;;;;;5064640;28;20051;-67
2022/06/26 04:47:22;;;;;;;0.03;0.03;;;17.60;89.70;;;;;;5048547;28;20120;-67
2022/06/26 04:49:48;;;;;;;0.00;0.00;;;17.70;89.60;;;;;;5049225;28;20482;-67
2022/06/26 04:52:14;;;;;;;0.00;0.00;;;17.80;89.60;;;;;;5048735;28;20041;-68
2022/06/26 04:54:41;;;;;;;0.10;0.10;;;17.80;89.70;;;;;;5048524;28;20037;-67
2022/06/26 04:57:07;;;;;;;0.00;0.00;;;17.80;89.60;;;;;;5048547;28;20075;-67
2022/06/26 04:59:32;;;;;;;0.10;0.10;;;17.80;89.70;;;;;;5048830;28;20045;-70
2022/06/26 05:01:58;;;;;;;3.00;1.75;;;17.80;89.60;;;;;;5048377;28;20065;-70
2022/06/26 05:04:24;;;;;;;0.00;0.00;;;17.90;89.60;;;;;;5048739;28;20482;-70
2022/06/26 05:06:49;;;;;;;0.00;0.00;;;17.80;89.40;;;;;;5051950;28;20472;-70
2022/06/26 05:09:16;;;;;;;0.00;0.00;;;17.90;89.40;;;;;;5053039;28;20781;-70
2022/06/26 05:11:42;;;;;;;0.00;0.00;;;17.80;89.60;;;;;;5052708;28;20103;-70
2022/06/26 05:14:08;;;;;;;0.10;0.10;;;17.90;89.80;;;;;;5052551;28;20076;-70
2022/06/26 05:16:34;;;;;;;0.10;0.10;;;17.90;89.80;;;;;;5052381;28;20077;-69
2022/06/26 05:19:00;;;;;;;0.00;0.00;;;17.80;89.60;;;;;;5052733;28;20041;-69
2022/06/26 05:21:26;;;;;;;0.38;0.38;;;17.80;89.60;;;;;;5051366;28;20091;-69
2022/06/26 05:23:51;;;;;;;1.00;0.65;;;17.90;89.50;;;;;;5068438;28;20049;-69
2022/06/26 05:26:17;;;;;;;0.00;0.00;;;17.90;89.40;;;;;;5052718;28;20037;-69
2022/06/26 05:28:43;;;;;;;0.00;0.00;;;17.80;89.30;;;;;;5052894;28;20049;-69
2022/06/26 05:31:08;;;;;;;0.00;0.00;;;17.90;89.30;;;;;;5051794;28;20048;-69
2022/06/26 05:33:34;;;;;;;0.00;0.00;;;17.90;89.30;;;;;;5052685;28;20048;-69
2022/06/26 05:36:00;;;;;;;0.47;0.45;;;17.90;89.30;;;;;;5050155;28;20044;-69
2022/06/26 05:38:25;;;;;;;5.00;0.75;;;17.80;89.70;;;;;;5052369;28;20043;-69
2022/06/26 05:40:51;;;;;;;0.00;0.00;;;17.80;89.60;;;;;;5051884;28;20453;-69
2022/06/26 05:43:17;;;;;;;0.22;0.22;;;17.80;89.50;;;;;;5051410;28;20029;-69
2022/06/26 05:45:42;;;;;;;0.63;0.40;;;17.80;89.60;;;;;;5050989;28;20490;-69
2022/06/26 05:48:08;;;;;;;0.20;0.20;;;17.80;89.60;;;;;;5041257;28;20033;-69
2022/06/26 05:50:34;;;;;;;0.00;0.00;;;17.80;89.40;;;;;;5041423;28;20985;-68
2022/06/26 05:53:03;;;;;;;0.00;0.00;;;17.70;89.30;;;;;;5029544;28;20401;-68
2022/06/26 05:55:28;;;;;;;0.08;0.08;;;17.70;89.30;;;;;;5033672;28;20071;-66
2022/06/26 05:57:54;;;;;;;0.10;0.10;;;17.70;89.10;;;;;;5051485;28;20460;-67
2022/06/26 06:00:20;;;;;;;0.55;0.55;;;17.70;89.10;;;;;;5051694;28;20075;-66
2022/06/26 06:02:46;;;;;;;0.00;0.00;;;17.60;89.00;;;;;;5033645;28;20140;-70
2022/06/26 06:05:15;;;;;;;0.17;0.17;;;17.70;89.10;;;;;;5051741;28;20052;-69
2022/06/26 06:07:40;;;;;;;0.03;0.03;;;17.60;89.00;;;;;;5051089;28;20053;-70
2022/06/26 06:10:07;;;;;;;0.22;0.22;;;17.70;88.80;;;;;;5046476;28;20053;-70
2022/06/26 06:12:33;;;;;;;0.70;0.63;;;17.70;88.50;;;;;;5048643;28;20063;-70
2022/06/26 06:15:02;;;;;;;0.00;0.00;;;17.60;88.20;;;;;;5040158;28;20163;-70
2022/06/26 06:17:37;;;;;;;2.08;0.55;;;17.60;88.20;;;;;;5048315;28;20070;-70
2022/06/26 06:20:24;;;;;;;0.30;0.20;;;17.60;88.10;;;;;;5049011;28;20036;-70
2022/06/26 06:22:59;;;;;;;0.13;0.13;;;17.70;87.90;;;;;;5051087;28;20041;-70
2022/06/26 06:25:25;;;;;;;0.08;0.08;;;17.70;87.90;;;;;;5044778;28;20035;-70
2022/06/26 06:27:51;;;;;;;0.00;0.00;;;17.70;87.80;;;;;;5050330;28;20037;-70
2022/06/26 06:30:17;;;;;;;0.05;0.05;;;17.70;87.70;;;;;;5050555;28;20045;-70
2022/06/26 06:32:45;;;;;;;0.00;0.00;;;17.80;87.70;;;;;;5047859;28;20056;-70
2022/06/26 06:35:13;;;;;;;0.05;0.05;;;17.90;86.60;;;;;;5051087;28;20065;-70
2022/06/26 06:37:39;;;;;;;0.05;0.05;;;17.90;85.80;;;;;;5044012;28;20043;-70
2022/06/26 06:40:05;;;;;;;0.00;0.00;;;17.90;85.30;;;;;;5039908;28;20049;-70
2022/06/26 06:42:31;;;;;;;0.00;0.00;;;17.80;84.50;;;;;;5049932;28;20044;-70
2022/06/26 06:44:57;;;;;;;0.00;0.00;;;17.90;84.60;;;;;;5050227;28;20144;-70
2022/06/26 06:47:22;;;;;;;5.93;1.02;;;17.80;83.90;;;;;;5049866;28;20044;-70
2022/06/26 06:49:48;;;;;;;0.00;0.00;;;17.80;83.70;;;;;;5049935;28;21143;-70
2022/06/26 06:52:13;;;;;;;0.00;0.00;;;17.80;83.80;;;;;;5049904;28;20497;-70
2022/06/26 06:54:39;;;;;;;0.45;0.28;;;17.80;84.10;;;;;;5050188;28;20069;-70
2022/06/26 06:57:05;;;;;;;0.10;0.10;;;17.90;84.20;;;;;;5049589;28;20037;-70
2022/06/26 06:59:31;;;;;;;0.30;0.30;;;18.00;83.70;;;;;;5049859;28;20105;-70
2022/06/26 07:01:56;;;;;;;0.00;0.00;;;18.00;83.80;;;;;;5050115;28;20120;-70
2022/06/26 07:04:22;;;;;;;0.00;0.00;;;18.10;83.90;;;;;;5050768;28;20137;-70
2022/06/26 07:06:48;;;;;;;0.00;0.00;;;18.20;84.00;;;;;;5049989;28;20044;-70
2022/06/26 07:09:14;;;;;;;0.00;0.00;;;18.30;83.70;;;;;;5049821;28;20033;-70
2022/06/26 07:11:39;;;;;;;0.00;0.00;;;18.30;83.00;;;;;;5050655;28;20117;-71
2022/06/26 07:14:05;;;;;;;0.00;0.00;;;18.40;82.80;;;;;;5041458;28;20088;-70
2022/06/26 07:16:31;;;;;;;0.20;0.20;;;18.40;82.40;;;;;;5049219;28;20132;-70
2022/06/26 07:18:56;;;;;;;0.00;0.00;;;18.30;82.40;;;;;;5046527;28;20045;-70
2022/06/26 07:21:22;;;;;;;0.10;0.10;;;18.40;82.50;;;;;;5049755;28;20769;-70
2022/06/26 07:23:48;;;;;;;0.00;0.00;;;18.40;82.70;;;;;;5042393;28;20471;-69
2022/06/26 07:26:13;;;;;;;0.00;0.00;;;18.50;82.80;;;;;;5043329;28;20410;-70
2022/06/26 07:28:39;;;;;;;0.00;0.00;;;18.50;82.20;;;;;;5048807;28;20068;-70
2022/06/26 07:31:05;;;;;;;0.00;0.00;;;18.50;82.00;;;;;;5039581;28;20045;-69
2022/06/26 07:36:15;;;;;;;0.28;0.28;;;18.60;81.70;;;;;;5048007;28;20077;-70
2022/06/26 07:38:40;;;;;;;0.05;0.05;;;18.70;81.70;;;;;;5048421;28;20080;-69
2022/06/26 07:41:06;;;;;;;0.00;0.00;;;18.80;81.30;;;;;;5049164;28;20048;-70
2022/06/26 07:43:32;;;;;;;0.00;0.00;;;18.90;81.00;;;;;;5049694;28;20052;-69
2022/06/26 07:45:58;;;;;;;0.00;0.00;;;19.10;81.60;;;;;;5049864;28;20045;-70
2022/06/26 07:48:23;;;;;;;0.30;0.30;;;19.10;80.10;;;;;;5047457;28;20084;-70
2022/06/26 07:50:49;;;;;;;0.10;0.10;;;19.20;79.90;;;;;;5045795;28;20101;-70
2022/06/26 07:53:15;;;;;;;0.10;0.10;;;19.20;78.90;;;;;;5049596;28;20048;-70
2022/06/26 07:55:41;;;;;;;0.00;0.00;;;19.20;79.00;;;;;;5048920;28;20044;-69
2022/06/26 07:58:06;;;;;;;0.00;0.00;;;19.20;78.70;;;;;;5048386;28;20053;-69
2022/06/26 08:00:32;;;;;;;0.00;0.00;;;19.10;78.20;;;;;;5048728;28;20051;-68
2022/06/26 08:03:24;;;;;;;0.00;0.00;;;19.10;78.60;;;;;;5048364;28;20037;-69
2022/06/26 08:05:49;;;;;;;0.00;0.00;;;19.00;77.40;;;;;;5040145;28;20053;-69
2022/06/26 08:08:15;;;;;;;0.00;0.00;;;19.00;76.90;;;;;;5038424;28;20055;-68
2022/06/26 08:10:41;;;;;;;0.35;0.20;;;19.10;77.80;;;;;;5042700;28;20053;-69
2022/06/26 08:13:07;;;;;;;0.00;0.00;;;19.20;78.00;;;;;;5044341;28;20052;-69
2022/06/26 08:15:33;;;;;;;0.00;0.00;;;19.30;78.00;;;;;;5047676;28;20383;-69
2022/06/26 08:18:01;;;;;;;0.00;0.00;;;19.50;78.00;;;;;;5047309;28;20055;-69
2022/06/26 08:20:27;;;;;;;0.00;0.00;;;19.60;76.70;;;;;;5048827;28;20053;-69
2022/06/26 08:22:52;;;;;;;0.00;0.00;;;19.70;77.50;;;;;;5047985;28;20056;-69
2022/06/26 08:25:18;;;;;;;0.00;0.00;;;19.80;77.50;;;;;;5049419;28;20049;-70
2022/06/26 08:27:44;;;;;;;0.00;0.00;;;19.80;76.20;;;;;;5047951;28;20413;-70
2022/06/26 08:30:09;;;;;;;0.00;0.00;;;19.80;76.60;;;;;;5049213;28;20049;-70
2022/06/26 08:32:36;;;;;;;0.00;0.00;;;19.80;76.70;;;;;;5046840;28;20041;-70
2022/06/26 08:35:03;;;;;;;0.35;0.35;;;19.80;77.10;;;;;;5048652;28;20052;-69
2022/06/26 08:37:29;;;;;;;0.00;0.00;;;19.90;76.50;;;;;;5046798;28;20464;-69
2022/06/26 08:39:54;;;;;;;1.88;1.35;;;19.90;73.70;;;;;;5046675;28;20051;-68
2022/06/26 08:42:21;;;;;;;0.00;0.00;;;19.90;73.40;;;;;;5047219;28;20112;-67
2022/06/26 08:44:47;;;;;;;0.20;0.20;;;19.90;73.20;;;;;;5048649;28;20033;-69
2022/06/26 08:47:15;;;;;;;0.20;0.20;;;19.90;73.10;;;;;;5047908;28;20099;-68
2022/06/26 08:49:42;;;;;;;0.00;0.00;;;20.00;74.60;;;;;;5048118;28;20453;-68
2022/06/26 08:52:14;;;;;;;0.00;0.00;;;20.10;74.70;;;;;;5047550;28;20057;-68
2022/06/26 08:54:40;;;;;;;0.00;0.00;;;20.10;74.70;;;;;;5063936;28;20040;-68
2022/06/26 08:57:06;;;;;;;0.00;0.00;;;20.20;74.70;;;;;;5048736;28;20044;-67
2022/06/26 08:59:32;;;;;;;0.00;0.00;;;20.30;74.10;;;;;;5047923;28;20123;-69
2022/06/26 09:01:58;;;;;;;1.30;0.90;;;20.30;72.20;;;;;;5048122;28;20036;-68
2022/06/26 09:04:23;;;;;;;0.00;0.00;;;20.20;71.40;;;;;;5048484;28;20044;-68
2022/06/26 09:06:49;;;;;;;0.00;0.00;;;20.20;72.10;;;;;;5047705;28;20044;-68
2022/06/26 09:09:23;;;;;;;0.00;0.00;;;20.20;72.10;;;;;;5037244;28;20049;-68
2022/06/26 09:11:51;;;;;;;0.00;0.00;;;20.20;69.40;;;;;;5047260;28;20048;-68
2022/06/26 09:14:17;;;;;;;0.00;0.00;;;20.20;70.40;;;;;;5047800;28;20120;-68
2022/06/26 09:16:47;;;;;;;0.00;0.00;;;20.20;69.90;;;;;;5039987;28;20879;-68
2022/06/26 09:19:16;;;;;;;0.00;0.00;;;20.20;70.80;;;;;;5048144;28;20041;-68
2022/06/26 09:21:42;;;;;;;0.00;0.00;;;20.30;71.50;;;;;;5049311;28;20128;-69
2022/06/26 09:24:10;;;;;;;0.28;0.25;;;20.30;71.30;;;;;;5042615;28;20077;-68
2022/06/26 09:26:37;;;;;;;0.00;0.00;;;20.40;71.50;;;;;;5041323;28;20128;-68
2022/06/26 09:29:10;;;;;;;0.00;0.00;;;20.40;70.70;;;;;;5048415;28;20041;-68
2022/06/26 09:31:37;;;;;;;0.00;0.00;;;20.60;71.40;;;;;;5028839;28;20055;-68
2022/06/26 09:34:04;;;;;;;0.00;0.00;;;20.70;72.00;;;;;;5028652;28;20046;-68
2022/06/26 09:36:30;;;;;;;0.10;0.10;;;20.90;72.00;;;;;;5046453;28;20076;-68
2022/06/26 09:38:56;;;;;;;0.00;0.00;;;20.90;71.10;;;;;;5047979;28;20073;-68
2022/06/26 09:41:30;;;;;;;0.00;0.00;;;21.00;71.20;;;;;;5061298;28;20037;-67
2022/06/26 09:43:57;;;;;;;0.00;0.00;;;21.00;71.30;;;;;;5047535;28;20492;-68
2022/06/26 09:46:31;;;;;;;0.00;0.00;;;21.10;70.30;;;;;;5047991;28;20060;-68
2022/06/26 09:48:58;;;;;;;0.00;0.00;;;21.20;71.10;;;;;;5047926;28;20037;-67
2022/06/26 09:51:25;;;;;;;0.00;0.00;;;21.20;69.60;;;;;;5048982;28;20553;-69
2022/06/26 09:53:51;;;;;;;0.00;0.00;;;21.20;69.00;;;;;;5051337;28;20068;-68
2022/06/26 09:56:17;;;;;;;0.00;0.00;;;21.10;69.70;;;;;;5051250;28;20041;-67
2022/06/26 09:58:43;;;;;;;0.00;0.00;;;21.10;70.90;;;;;;5040119;28;20078;-67
2022/06/26 10:06:43;;;;;;;0.00;0.00;;;21.10;69.40;;;;;;5050420;28;20041;-68
2022/06/26 10:09:10;;;;;;;0.00;0.00;;;21.20;69.40;;;;;;5043108;28;20171;-69
2022/06/26 10:11:37;;;;;;;0.10;0.10;;;21.10;69.50;;;;;;5051341;28;20106;-69
2022/06/26 10:14:11;;;;;;;0.00;0.00;;;21.10;68.80;;;;;;5050355;28;20240;-69
2022/06/26 10:16:54;;;;;;;0.00;0.00;;;21.10;69.00;;;;;;5044233;28;20116;-69
2022/06/26 10:19:36;;;;;;;0.00;0.00;;;21.10;69.90;;;;;;5051526;28;20052;-69
2022/06/26 10:22:01;;;;;;;;;;;21.10;70.10;;;;;;5051766;28;20091;-69
2022/06/26 10:24:27;;;;;;;0.00;0.00;;;21.10;70.10;;;;;;5051269;28;19921;-69
2022/06/26 10:26:53;;;;;;;0.10;0.10;;;21.10;70.50;;;;;;5051129;28;20045;-69
2022/06/26 10:29:19;;;;;;;0.00;0.00;;;21.10;70.70;;;;;;5051457;28;20037;-69
2022/06/26 10:31:47;;;;;;;0.00;0.00;;;21.10;70.10;;;;;;5051373;28;20079;-69
2022/06/26 10:34:22;;;;;;;0.00;0.00;;;21.10;70.20;;;;;;5033691;28;20543;-69
2022/06/26 10:37:01;;;;;;;0.30;0.05;;;21.20;71.60;;;;;;5050649;28;20041;-69
2022/06/26 10:39:42;;;;;;;0.00;0.00;;;21.30;71.70;;;;;;5050861;28;20079;-69
2022/06/26 10:45:14;;;;;;;0.00;0.00;;;21.50;71.90;;;;;;5051183;28;20049;-70
2022/06/26 10:47:53;;;;;;;0.00;0.00;;;21.60;71.10;;;;;;5050908;28;20075;-68
2022/06/26 10:50:27;;;;;;;0.00;0.00;;;21.60;70.50;;;;;;5051101;28;20044;-69
2022/06/26 10:52:59;;;;;;;0.00;0.00;;;21.60;68.00;;;;;;5041923;28;20041;-68
2022/06/26 10:55:25;;;;;;;0.00;0.00;;;21.60;67.10;;;;;;5034922;28;20110;-69
2022/06/26 10:57:50;;;;;;;0.00;0.00;;;21.60;68.50;;;;;;5042059;28;20045;-68
2022/06/26 11:00:16;;;;;;;0.20;0.20;;;21.70;68.60;;;;;;5050258;28;20044;-68
2022/06/26 11:02:44;;;;;;;0.65;0.32;;;21.70;67.90;;;;;;5048863;28;20451;-68
2022/06/26 11:05:12;;;;;;;0.10;0.10;;;21.70;67.90;;;;;;5047349;28;20091;-69
2022/06/26 11:07:42;;;;;;;0.00;0.00;;;21.80;68.20;;;;;;5048483;28;20045;-69
2022/06/26 11:10:12;;;;;;;0.10;0.10;;;21.70;68.60;;;;;;5049969;28;20514;-69
2022/06/26 11:12:43;;;;;;;0.00;0.00;;;21.70;68.50;;;;;;5050409;28;20094;-69
2022/06/26 11:15:21;;;;;;;;;;;21.70;67.80;;;;;;5050356;28;20501;-70
2022/06/26 11:17:54;;;;;;;0.00;0.00;;;21.70;67.40;;;;;;5048208;28;20445;-68
2022/06/26 11:23:15;;;;;;;0.00;0.00;;;21.70;66.60;;;;;;5050101;28;20052;-69
2022/06/26 11:25:41;;;;;;;0.00;0.00;;;21.60;67.60;;;;;;5049654;28;20494;-68
2022/06/26 11:28:09;;;;;;;0.00;0.00;;;21.70;66.40;;;;;;5045948;28;20063;-68
2022/06/26 11:30:39;;;;;;;0.00;0.00;;;21.80;67.20;;;;;;5050421;28;20049;-68
2022/06/26 11:33:07;;;;;;;0.00;0.00;;;21.80;66.40;;;;;;5047599;28;20041;-69
2022/06/26 11:35:34;;;;;;;0.00;0.00;;;21.80;67.70;;;;;;5047454;28;20041;-68
2022/06/26 11:38:12;;;;;;;0.00;0.00;;;21.90;66.90;;;;;;5047937;28;20115;-67
2022/06/26 11:40:39;;;;;;;0.00;0.00;;;22.00;66.90;;;;;;5048092;28;20164;-67
2022/06/26 11:43:05;;;;;;;0.00;0.00;;;22.00;68.10;;;;;;5048333;28;20055;-67
2022/06/26 11:45:32;;;;;;;0.00;0.00;;;22.10;68.40;;;;;;5064301;28;20098;-67
2022/06/26 11:48:00;;;;;;;0.00;0.00;;;22.10;67.90;;;;;;5047937;28;20076;-66
2022/06/26 11:50:28;;;;;;;0.00;0.00;;;22.10;68.00;;;;;;5047532;28;20037;-68
2022/06/26 11:52:55;;;;;;;0.00;0.00;;;22.10;65.70;;;;;;5045193;28;20685;-68
2022/06/26 11:55:21;;;;;;;0.00;0.00;;;22.00;63.70;;;;;;5047546;28;20087;-68
2022/06/26 11:57:47;;;;;;;0.10;0.10;;;22.00;66.60;;;;;;5049993;28;20823;-68
2022/06/26 12:00:13;;;;;;;0.00;0.00;;;22.00;65.80;;;;;;5049339;28;20051;-68
2022/06/26 12:02:45;;;;;;;0.00;0.00;;;22.00;64.60;;;;;;5049553;28;20051;-68
2022/06/26 12:05:11;;;;;;;0.00;0.00;;;22.00;63.20;;;;;;5049105;28;20057;-68
2022/06/26 12:07:41;;;;;;;0.00;0.00;;;22.10;65.90;;;;;;5049128;28;20055;-68
2022/06/26 12:10:08;;;;;;;0.00;0.00;;;22.30;65.40;;;;;;5047298;28;20053;-68
2022/06/26 12:12:34;;;;;;;0.10;0.10;;;22.50;66.00;;;;;;5040314;28;20440;-68
2022/06/26 12:14:59;;;;;;;0.03;0.03;;;22.70;65.30;;;;;;5045622;28;20049;-68
2022/06/26 12:17:27;;;;;;;0.00;0.00;;;22.70;64.40;;;;;;5048321;28;20041;-68
2022/06/26 12:19:53;;;;;;;0.00;0.00;;;22.70;61.30;;;;;;5048849;28;20578;-68
2022/06/26 12:22:33;;;;;;;0.00;0.00;;;22.60;59.10;;;;;;5047981;28;20040;-69
2022/06/26 12:25:00;;;;;;;0.75;0.47;;;22.60;62.10;;;;;;5046634;28;20552;-68
2022/06/26 12:27:42;;;;;;;0.00;0.00;;;22.60;61.50;;;;;;5048988;28;20041;-68
2022/06/26 12:30:19;;;;;;;0.00;0.00;;;22.70;62.50;;;;;;5048599;28;20076;-68
2022/06/26 12:32:44;;;;;;;0.00;0.00;;;22.80;61.90;;;;;;5048808;28;20110;-69
2022/06/26 12:35:10;;;;;;;0.00;0.00;;;22.90;62.90;;;;;;5063804;28;20048;-69
2022/06/26 12:37:36;;;;;;;0.00;0.00;;;23.00;61.50;;;;;;5047014;28;20057;-69
2022/06/26 12:40:02;;;;;;;0.00;0.00;;;23.00;58.20;;;;;;5048340;28;20053;-69
2022/06/26 12:42:28;;;;;;;0.00;0.00;;;22.90;57.30;;;;;;5048852;28;20110;-68
2022/06/26 12:44:53;;;;;;;0.00;0.00;;;22.90;58.80;;;;;;5045264;28;20056;-69
2022/06/26 12:47:19;;;;;;;0.00;0.00;;;23.00;59.30;;;;;;5063732;28;20447;-69
2022/06/26 12:49:44;;;;;;;0.10;0.10;;;23.00;59.80;;;;;;5048255;28;20127;-69
2022/06/26 12:52:10;;;;;;;0.00;0.00;;;23.10;58.80;;;;;;5048930;28;20398;-69
2022/06/26 12:54:36;;;;;;;0.00;0.00;;;23.20;58.00;;;;;;5048571;28;20090;-69
2022/06/26 12:57:01;;;;;;;0.00;0.00;;;23.30;57.70;;;;;;5048298;28;20049;-68
2022/06/26 12:59:27;;;;;;;0.00;0.00;;;23.20;57.50;;;;;;5042551;28;20452;-69
2022/06/26 13:01:53;;;;;;;0.00;0.00;;;23.30;58.30;;;;;;5036094;28;20052;-69
2022/06/26 13:04:18;;;;;;;0.00;0.00;;;23.60;60.30;;;;;;5044814;28;20055;-69